createdAt,value
2023-05-19T00:01:17.999Z,10.75
2023-05-19T00:03:54.476Z,8.82
2023-05-19T00:06:26.429Z,10.00
2023-05-19T00:08:59.473Z,13.18
2023-05-19T00:11:30.343Z,7.97
2023-05-19T00:14:02.457Z,8.70
2023-05-19T00:16:33.211Z,9.63
2023-05-19T00:19:04.056Z,9.15
2023-05-19T00:21:33.002Z,10.00
2023-05-19T00:24:01.514Z,8.52
2023-05-19T00:26:31.433Z,11.07
2023-05-19T00:29:00.097Z,8.73
2023-05-19T00:31:28.719Z,8.52
2023-05-19T00:33:57.385Z,9.57
2023-05-19T00:36:28.193Z,9.77
2023-05-19T00:38:56.800Z,9.57
2023-05-19T00:41:26.460Z,12.55
2023-05-19T00:43:56.943Z,11.82
2023-05-19T00:46:25.679Z,13.02
2023-05-19T00:48:54.235Z,9.85
2023-05-19T00:51:23.556Z,13.18
2023-05-19T00:53:52.819Z,14.20
2023-05-19T00:56:22.902Z,14.55
2023-05-19T00:58:53.254Z,14.07
2023-05-19T01:01:23.580Z,13.60
2023-05-19T01:03:52.258Z,15.70
2023-05-19T01:06:21.201Z,16.80
2023-05-19T01:08:49.910Z,28.35
2023-05-19T01:11:18.647Z,22.92
2023-05-19T01:13:47.571Z,29.40
2023-05-19T01:16:23.663Z,24.33
2023-05-19T01:19:02.331Z,26.27
2023-05-19T01:22:02.572Z,20.27
2023-05-19T01:25:15.250Z,25.52
2023-05-19T01:28:23.154Z,27.23
2023-05-19T01:30:56.123Z,24.38
2023-05-19T01:33:26.825Z,28.15
2023-05-19T01:35:56.884Z,27.20
2023-05-19T01:38:28.993Z,29.95
2023-05-19T01:40:59.153Z,28.27
2023-05-19T01:43:31.093Z,29.75
2023-05-19T01:46:03.037Z,29.83
2023-05-19T01:48:32.684Z,29.92
2023-05-19T01:51:01.373Z,38.85
2023-05-19T01:53:30.051Z,34.80
2023-05-19T01:55:59.208Z,34.55
2023-05-19T01:58:38.316Z,37.75
2023-05-19T02:01:23.523Z,43.92
2023-05-19T02:04:04.287Z,36.15
2023-05-19T02:06:42.098Z,45.47
2023-05-19T02:09:17.136Z,46.40
2023-05-19T02:11:53.867Z,46.17
2023-05-19T02:14:27.116Z,44.05
2023-05-19T02:16:59.462Z,42.78
2023-05-19T02:19:34.343Z,40.17
2023-05-19T02:22:03.755Z,42.78
2023-05-19T02:24:32.321Z,39.90
2023-05-19T02:27:01.119Z,41.53
2023-05-19T02:29:29.761Z,45.00
2023-05-19T02:32:00.491Z,41.58
2023-05-19T02:34:28.892Z,43.22
2023-05-19T02:36:57.960Z,44.00
2023-05-19T02:39:26.645Z,50.65
2023-05-19T02:41:55.485Z,42.97
2023-05-19T02:44:24.234Z,38.95
2023-05-19T02:46:52.714Z,47.78
2023-05-19T02:49:23.100Z,44.17
2023-05-19T02:51:51.529Z,43.30
2023-05-19T02:54:20.128Z,47.08
2023-05-19T02:56:48.734Z,47.92
2023-05-19T02:59:17.402Z,42.38
2023-05-19T03:01:47.875Z,39.67
2023-05-19T03:04:16.823Z,43.17
2023-05-19T03:06:46.852Z,48.22
2023-05-19T03:09:15.802Z,46.88
2023-05-19T03:11:44.265Z,48.58
2023-05-19T03:14:13.775Z,39.65
2023-05-19T03:16:42.792Z,45.08
2023-05-19T03:19:11.828Z,47.60
2023-05-19T03:21:40.892Z,43.40
2023-05-19T03:24:10.901Z,49.13
2023-05-19T03:26:39.354Z,47.80
2023-05-19T03:29:08.124Z,45.15
2023-05-19T03:31:37.047Z,44.20
2023-05-19T03:34:05.884Z,44.38
2023-05-19T03:36:40.101Z,42.08
2023-05-19T03:39:08.681Z,43.22
2023-05-19T03:41:38.679Z,40.90
2023-05-19T03:44:07.237Z,40.85
2023-05-19T03:46:35.756Z,46.33
2023-05-19T03:49:04.215Z,49.80
2023-05-19T03:51:32.768Z,47.10
2023-05-19T03:54:01.319Z,50.85
2023-05-19T03:56:30.278Z,39.65
2023-05-19T03:59:00.575Z,49.88
2023-05-19T04:01:29.606Z,43.78
2023-05-19T04:03:58.206Z,42.83
2023-05-19T04:06:26.776Z,50.42
2023-05-19T04:08:55.431Z,44.60
2023-05-19T04:11:24.057Z,45.25
2023-05-19T04:13:53.031Z,40.58
2023-05-19T04:16:23.400Z,51.70
2023-05-19T04:18:52.041Z,48.08
2023-05-19T04:21:22.888Z,41.28
2023-05-19T04:23:51.368Z,40.45
2023-05-19T04:26:22.116Z,42.53
2023-05-19T04:28:51.086Z,44.40
2023-05-19T04:31:21.873Z,45.55
2023-05-19T04:33:53.816Z,46.03
2023-05-19T04:36:22.901Z,40.65
2023-05-19T04:38:55.021Z,39.03
2023-05-19T04:41:23.523Z,49.03
2023-05-19T04:43:52.006Z,50.05
2023-05-19T04:46:24.839Z,47.10
2023-05-19T04:48:55.607Z,47.63
2023-05-19T04:51:30.259Z,39.53
2023-05-19T04:53:59.510Z,40.00
2023-05-19T04:56:29.087Z,51.63
2023-05-19T04:58:58.689Z,42.15
2023-05-19T05:01:27.236Z,42.33
2023-05-19T05:03:59.276Z,34.53
2023-05-19T05:06:28.969Z,42.60
2023-05-19T05:08:58.257Z,44.85
2023-05-19T05:11:27.379Z,46.30
2023-05-19T05:13:58.455Z,44.22
2023-05-19T05:16:28.847Z,37.35
2023-05-19T05:18:59.900Z,40.47
2023-05-19T05:21:29.651Z,41.15
2023-05-19T05:23:58.845Z,46.75
2023-05-19T05:26:29.554Z,34.33
2023-05-19T05:28:58.043Z,40.83
2023-05-19T05:31:26.688Z,36.85
2023-05-19T05:33:55.303Z,44.13
2023-05-19T05:36:25.397Z,52.10
2023-05-19T05:38:53.997Z,40.25
2023-05-19T05:41:23.119Z,43.65
2023-05-19T05:43:51.740Z,34.30
2023-05-19T05:46:20.399Z,41.83
2023-05-19T05:48:49.569Z,40.45
2023-05-19T05:51:19.065Z,48.95
2023-05-19T05:53:54.354Z,46.40
2023-05-19T05:56:23.860Z,42.15
2023-05-19T05:58:52.262Z,44.65
2023-05-19T06:01:21.221Z,53.88
2023-05-19T06:03:50.224Z,42.63
2023-05-19T06:06:18.706Z,36.00
2023-05-19T06:08:48.923Z,44.95
2023-05-19T06:11:17.540Z,41.78
2023-05-19T06:13:45.867Z,40.38
2023-05-19T06:16:14.671Z,45.47
2023-05-19T06:18:43.509Z,45.15
2023-05-19T06:21:13.507Z,44.83
2023-05-19T06:23:42.065Z,39.63
2023-05-19T06:26:12.393Z,41.75
2023-05-19T06:28:40.927Z,39.53
2023-05-19T06:31:09.983Z,41.78
2023-05-19T06:33:38.999Z,38.10
2023-05-19T06:36:08.915Z,52.75
2023-05-19T06:38:37.589Z,47.10
2023-05-19T06:41:06.293Z,35.40
2023-05-19T06:43:36.347Z,43.03
2023-05-19T06:46:05.119Z,44.85
2023-05-19T06:48:33.802Z,41.38
2023-05-19T06:51:02.319Z,45.83
2023-05-19T06:53:30.625Z,45.20
2023-05-19T06:56:00.193Z,53.88
2023-05-19T06:58:29.059Z,47.67
2023-05-19T07:00:59.147Z,46.47
2023-05-19T07:03:28.002Z,38.88
2023-05-19T07:05:57.081Z,47.58
2023-05-19T07:08:25.447Z,36.30
2023-05-19T07:10:55.509Z,46.40
2023-05-19T07:13:25.913Z,46.58
2023-05-19T07:15:56.176Z,48.05
2023-05-19T07:18:26.414Z,40.90
2023-05-19T07:20:55.140Z,52.58
2023-05-19T07:23:23.424Z,44.00
2023-05-19T07:25:55.375Z,44.38
2023-05-19T07:28:24.228Z,45.47
2023-05-19T07:30:53.301Z,40.80
2023-05-19T07:33:21.820Z,44.60
2023-05-19T07:35:52.049Z,40.95
2023-05-19T07:38:21.649Z,51.88
2023-05-19T07:40:50.309Z,44.83
2023-05-19T07:43:18.836Z,41.50
2023-05-19T07:45:47.365Z,53.63
2023-05-19T07:48:16.275Z,43.38
2023-05-19T07:50:44.942Z,43.40
2023-05-19T07:53:15.616Z,42.55
2023-05-19T07:55:44.294Z,47.85
2023-05-19T07:58:13.048Z,39.83
2023-05-19T08:00:43.524Z,47.63
2023-05-19T08:03:12.195Z,42.78
2023-05-19T08:05:40.769Z,51.65
2023-05-19T08:08:09.692Z,54.17
2023-05-19T08:10:39.700Z,36.35
2023-05-19T08:13:08.341Z,44.15
2023-05-19T08:15:37.333Z,49.10
2023-05-19T08:18:06.432Z,40.85
2023-05-19T08:20:35.492Z,46.78
2023-05-19T08:23:04.314Z,46.42
2023-05-19T08:25:33.296Z,40.03
2023-05-19T08:28:03.402Z,47.47
2023-05-19T08:30:32.172Z,38.60
2023-05-19T08:33:01.401Z,32.83
2023-05-19T08:35:30.512Z,40.63
2023-05-19T08:37:58.939Z,43.10
2023-05-19T08:40:31.901Z,42.83
2023-05-19T08:43:00.953Z,46.80
2023-05-19T08:45:31.501Z,44.50
2023-05-19T08:48:00.142Z,41.10
2023-05-19T08:50:32.272Z,44.70
2023-05-19T08:55:38.483Z,38.53
2023-05-19T08:58:07.060Z,37.65
2023-05-19T09:00:37.797Z,35.63
2023-05-19T09:05:41.600Z,33.20
2023-05-19T09:08:10.392Z,41.50
2023-05-19T09:10:38.996Z,40.13
2023-05-19T09:13:07.924Z,33.45
2023-05-19T09:15:41.736Z,38.17
2023-05-19T09:18:12.208Z,36.78
2023-05-19T09:20:42.939Z,35.20
2023-05-19T09:23:15.251Z,35.45
2023-05-19T09:25:51.026Z,37.30
2023-05-19T09:28:25.577Z,29.05
2023-05-19T09:31:03.584Z,31.95
2023-05-19T09:33:34.779Z,31.58
2023-05-19T09:36:03.483Z,38.63
2023-05-19T09:38:32.260Z,31.33
2023-05-19T09:41:02.093Z,34.30
2023-05-19T09:43:31.820Z,34.97
2023-05-19T09:46:05.473Z,40.75
2023-05-19T09:48:34.815Z,39.03
2023-05-19T09:51:04.002Z,31.75
2023-05-19T09:53:32.761Z,41.20
2023-05-19T09:56:04.713Z,35.65
2023-05-19T09:58:34.978Z,37.90
2023-05-19T10:01:06.112Z,40.22
2023-05-19T10:03:36.975Z,29.05
2023-05-19T10:06:07.848Z,34.42
2023-05-19T10:08:37.303Z,26.85
2023-05-19T10:11:08.126Z,35.00
2023-05-19T10:13:39.043Z,32.28
2023-05-19T10:16:11.239Z,32.40
2023-05-19T10:18:41.283Z,30.75
2023-05-19T10:21:10.470Z,30.83
2023-05-19T10:23:39.435Z,25.45
2023-05-19T10:26:09.302Z,35.25
2023-05-19T10:28:41.047Z,31.60
2023-05-19T10:31:16.650Z,32.35
2023-05-19T10:34:01.314Z,27.33
2023-05-19T10:36:46.739Z,29.95
2023-05-19T10:39:20.432Z,30.92
2023-05-19T10:41:56.453Z,32.05
2023-05-19T10:44:41.652Z,32.63
2023-05-19T10:47:12.676Z,27.02
2023-05-19T10:49:41.811Z,31.23
2023-05-19T10:52:23.530Z,28.92
2023-05-19T10:54:54.846Z,24.80
2023-05-19T10:57:28.600Z,32.72
2023-05-19T10:59:58.245Z,23.40
2023-05-19T11:02:56.310Z,28.35
2023-05-19T11:05:31.572Z,27.73
2023-05-19T11:08:03.760Z,30.27
2023-05-19T11:10:32.674Z,28.05
2023-05-19T11:13:01.546Z,32.47
2023-05-19T11:15:31.042Z,32.65
2023-05-19T11:18:03.445Z,31.92
2023-05-19T11:20:35.138Z,27.98
2023-05-19T11:23:08.231Z,28.60
2023-05-19T11:25:44.580Z,25.77
2023-05-19T11:28:16.273Z,31.67
2023-05-19T11:30:47.503Z,28.60
2023-05-19T11:33:19.473Z,25.52
2023-05-19T11:35:49.737Z,28.20
2023-05-19T11:38:20.664Z,25.35
2023-05-19T11:40:50.935Z,27.42
2023-05-19T11:43:19.358Z,24.35
2023-05-19T11:45:48.855Z,25.42
2023-05-19T11:48:22.151Z,30.05
2023-05-19T11:50:51.260Z,33.97
2023-05-19T11:53:21.863Z,24.58
2023-05-19T11:55:51.057Z,27.40
2023-05-19T11:58:26.646Z,26.63
2023-05-19T12:00:55.710Z,22.70
2023-05-19T12:03:28.590Z,23.63
2023-05-19T12:05:58.290Z,27.10
2023-05-19T12:08:27.410Z,20.30
2023-05-19T12:10:56.542Z,25.42
2023-05-19T12:13:25.216Z,20.92
2023-05-19T12:15:54.732Z,25.05
2023-05-19T12:18:23.380Z,25.55
2023-05-19T12:20:53.462Z,20.35
2023-05-19T12:23:22.072Z,20.02
2023-05-19T12:25:51.143Z,20.85
2023-05-19T12:28:21.213Z,18.98
2023-05-19T12:30:52.597Z,24.58
2023-05-19T12:33:22.463Z,24.75
2023-05-19T12:35:52.905Z,23.73
2023-05-19T12:38:22.579Z,22.15
2023-05-19T12:40:52.042Z,24.40
2023-05-19T12:43:24.063Z,21.38
2023-05-19T12:45:53.694Z,18.95
2023-05-19T12:48:24.106Z,21.77
2023-05-19T12:50:55.795Z,31.13
2023-05-19T12:53:24.984Z,19.63
2023-05-19T12:55:54.427Z,19.15
2023-05-19T12:58:23.546Z,22.17
2023-05-19T13:00:53.179Z,22.70
2023-05-19T13:03:22.418Z,24.90
2023-05-19T13:05:52.703Z,22.33
2023-05-19T13:08:24.352Z,21.10
2023-05-19T13:10:53.331Z,19.38
2023-05-19T13:13:22.221Z,20.48
2023-05-19T13:15:50.704Z,23.50
2023-05-19T13:18:20.000Z,22.02
2023-05-19T13:20:51.623Z,19.05
2023-05-19T13:23:22.050Z,20.40
2023-05-19T13:25:53.301Z,17.30
2023-05-19T13:28:22.035Z,21.20
2023-05-19T13:30:52.492Z,19.05
2023-05-19T13:33:21.278Z,20.83
2023-05-19T13:35:50.347Z,17.55
2023-05-19T13:38:18.904Z,19.73
2023-05-19T13:40:48.896Z,19.83
2023-05-19T13:43:17.429Z,31.15
2023-05-19T13:45:46.322Z,16.58
2023-05-19T13:48:14.972Z,20.67
2023-05-19T13:50:43.592Z,21.80
2023-05-19T13:53:12.107Z,18.83
2023-05-19T13:55:41.073Z,33.83
2023-05-19T13:58:14.029Z,18.50
2023-05-19T14:00:42.545Z,17.98
2023-05-19T14:03:11.193Z,20.75
2023-05-19T14:05:39.906Z,17.70
2023-05-19T14:08:08.651Z,18.55
2023-05-19T14:10:37.131Z,21.85
2023-05-19T14:13:29.907Z,17.90
2023-05-19T14:15:57.807Z,18.98
2023-05-19T14:18:26.913Z,16.23
2023-05-19T14:20:55.437Z,21.92
2023-05-19T14:23:23.764Z,15.88
2023-05-19T14:25:52.013Z,20.10
2023-05-19T14:28:21.156Z,22.42
2023-05-19T14:30:51.428Z,19.55
2023-05-19T14:33:22.673Z,21.58
2023-05-19T14:35:51.229Z,18.67
2023-05-19T14:38:19.696Z,20.10
2023-05-19T14:40:48.609Z,17.83
2023-05-19T14:43:16.965Z,19.60
2023-05-19T14:45:46.190Z,14.63
2023-05-19T14:48:15.026Z,19.00
2023-05-19T14:50:45.116Z,24.98
2023-05-19T14:53:13.551Z,19.63
2023-05-19T14:55:41.940Z,22.48
2023-05-19T14:58:26.961Z,20.25
2023-05-19T15:00:58.719Z,20.80
2023-05-19T15:03:27.479Z,24.02
2023-05-19T15:05:57.821Z,17.55
2023-05-19T15:08:26.352Z,16.38
2023-05-19T15:10:54.726Z,17.77
2023-05-19T15:13:23.155Z,17.23
2023-05-19T15:16:08.309Z,20.08
2023-05-19T15:18:43.961Z,20.05
2023-05-19T15:21:14.120Z,17.42
2023-05-19T15:23:43.128Z,20.10
2023-05-19T15:26:12.419Z,21.23
2023-05-19T15:29:17.828Z,17.65
2023-05-19T15:31:46.322Z,20.65
2023-05-19T15:34:15.399Z,17.40
2023-05-19T15:36:45.548Z,17.83
2023-05-19T15:39:14.388Z,19.85
2023-05-19T15:41:42.770Z,16.90
2023-05-19T15:44:11.551Z,18.30
2023-05-19T15:46:40.683Z,17.90
2023-05-19T15:49:09.135Z,17.83
2023-05-19T15:51:41.547Z,17.00
2023-05-19T15:54:12.074Z,16.42
2023-05-19T15:56:40.969Z,17.65
2023-05-19T15:59:10.387Z,17.65
2023-05-19T16:01:39.264Z,13.80
2023-05-19T16:04:08.220Z,14.32
2023-05-19T16:06:37.051Z,14.52
2023-05-19T16:09:06.798Z,17.85
2023-05-19T16:11:39.612Z,21.52
2023-05-19T16:14:11.557Z,18.13
2023-05-19T16:16:40.632Z,21.40
2023-05-19T16:19:10.653Z,20.95
2023-05-19T16:21:39.500Z,18.33
2023-05-19T16:24:08.269Z,18.48
2023-05-19T16:26:38.517Z,12.93
2023-05-19T16:29:06.950Z,31.77
2023-05-19T16:31:35.529Z,15.20
2023-05-19T16:34:03.948Z,19.73
2023-05-19T16:36:33.167Z,24.80
2023-05-19T16:39:01.531Z,19.77
2023-05-19T16:41:30.158Z,16.63
2023-05-19T16:44:00.315Z,18.80
2023-05-19T16:46:29.301Z,19.48
2023-05-19T16:48:59.989Z,17.08
2023-05-19T16:51:28.607Z,17.85
2023-05-19T16:53:57.244Z,18.17
2023-05-19T16:56:26.089Z,20.30
2023-05-19T16:59:01.649Z,21.88
2023-05-19T17:01:31.603Z,24.30
2023-05-19T17:04:00.128Z,18.40
2023-05-19T17:06:28.918Z,17.63
2023-05-19T17:08:57.601Z,18.55
2023-05-19T17:11:27.152Z,21.30
2023-05-19T17:13:55.881Z,16.30
2023-05-19T17:16:24.933Z,17.58
2023-05-19T17:18:55.031Z,24.45
2023-05-19T17:21:24.751Z,20.95
2023-05-19T17:23:53.380Z,14.60
2023-05-19T17:26:21.678Z,16.20
2023-05-19T17:28:50.265Z,19.67
2023-05-19T17:31:18.812Z,18.50
2023-05-19T17:33:47.598Z,18.02
2023-05-19T17:36:18.191Z,16.48
2023-05-19T17:38:46.716Z,18.23
2023-05-19T17:41:15.323Z,17.20
2023-05-19T17:43:43.888Z,18.65
2023-05-19T17:46:12.954Z,18.90
2023-05-19T17:48:42.157Z,23.52
2023-05-19T17:51:11.592Z,20.75
2023-05-19T17:53:43.231Z,24.83
2023-05-19T17:56:14.468Z,25.80
2023-05-19T17:58:44.894Z,28.77
2023-05-19T18:01:13.744Z,31.23
2023-05-19T18:03:43.980Z,25.58
2023-05-19T18:06:13.677Z,25.02
2023-05-19T18:08:47.391Z,24.45
2023-05-19T18:11:16.510Z,26.38
2023-05-19T18:13:45.410Z,31.58
2023-05-19T18:16:15.094Z,25.33
2023-05-19T18:18:44.910Z,25.90
2023-05-19T18:21:18.079Z,24.88
2023-05-19T18:23:48.586Z,26.15
2023-05-19T18:26:17.257Z,24.83
2023-05-19T18:28:46.084Z,25.90
2023-05-19T18:31:19.590Z,28.90
2023-05-19T18:33:48.749Z,22.48
2023-05-19T18:36:17.861Z,26.88
2023-05-19T18:38:48.615Z,25.27
2023-05-19T18:41:17.480Z,28.13
2023-05-19T18:43:46.363Z,26.77
2023-05-19T18:46:14.893Z,24.95
2023-05-19T18:48:44.000Z,25.55
2023-05-19T18:51:14.744Z,29.70
2023-05-19T18:53:43.336Z,23.77
2023-05-19T18:56:15.721Z,25.08
2023-05-19T18:58:45.420Z,23.27
2023-05-19T19:01:16.624Z,26.17
2023-05-19T19:03:46.922Z,30.77
2023-05-19T19:06:18.525Z,25.33
2023-05-19T19:08:47.196Z,21.88
2023-05-19T19:11:17.522Z,20.63
2023-05-19T19:13:46.463Z,23.08
2023-05-19T19:16:14.910Z,24.48
2023-05-19T19:18:43.847Z,21.65
2023-05-19T19:21:12.530Z,23.88
2023-05-19T19:23:41.345Z,24.67
2023-05-19T19:26:10.035Z,25.55
2023-05-19T19:28:40.967Z,30.15
2023-05-19T19:31:09.615Z,26.00
2023-05-19T19:33:38.423Z,26.85
2023-05-19T19:36:07.639Z,22.25
2023-05-19T19:38:36.799Z,26.38
2023-05-19T19:41:05.487Z,23.70
2023-05-19T19:43:34.170Z,19.77
2023-05-19T19:46:07.482Z,28.23
2023-05-19T19:48:36.394Z,28.45
2023-05-19T19:51:04.776Z,22.90
2023-05-19T19:53:33.494Z,25.08
2023-05-19T19:56:03.849Z,25.55
2023-05-19T19:58:32.617Z,25.33
2023-05-19T20:01:03.165Z,23.83
2023-05-19T20:03:34.619Z,29.20
2023-05-19T20:06:03.410Z,27.10
2023-05-19T20:08:32.150Z,21.95
2023-05-19T20:11:00.999Z,23.75
2023-05-19T20:13:30.689Z,24.67
2023-05-19T20:16:01.168Z,26.50
2023-05-19T20:18:30.202Z,22.23
2023-05-19T20:21:00.325Z,27.60
2023-05-19T20:23:29.129Z,21.40
2023-05-19T20:26:10.149Z,26.13
2023-05-19T20:28:40.400Z,26.67
2023-05-19T20:31:09.056Z,26.35
2023-05-19T20:33:37.760Z,26.67
2023-05-19T20:36:08.649Z,25.42
2023-05-19T20:38:37.169Z,28.20
2023-05-19T20:41:05.961Z,23.25
2023-05-19T20:43:35.078Z,22.13
2023-05-19T20:46:03.976Z,25.05
2023-05-19T20:48:32.709Z,25.20
2023-05-19T20:51:01.733Z,26.92
2023-05-19T20:53:32.062Z,26.77
2023-05-19T20:56:00.856Z,25.10
2023-05-19T20:58:30.561Z,27.17
2023-05-19T21:00:59.849Z,28.40
2023-05-19T21:03:28.853Z,24.65
2023-05-19T21:05:57.644Z,23.88
2023-05-19T21:08:26.729Z,29.00
2023-05-19T21:10:56.897Z,26.15
2023-05-19T21:13:25.449Z,28.05
2023-05-19T21:15:54.144Z,23.38
2023-05-19T21:18:22.680Z,24.88
2023-05-19T21:20:51.132Z,22.30
2023-05-19T21:23:19.757Z,21.92
2023-05-19T21:25:48.259Z,26.10
2023-05-19T21:28:19.762Z,22.85
2023-05-19T21:30:49.675Z,27.25
2023-05-19T21:33:18.579Z,31.17
2023-05-19T21:35:47.252Z,28.95
2023-05-19T21:38:23.922Z,21.73
2023-05-19T21:40:55.323Z,25.88
2023-05-19T21:43:26.271Z,24.58
2023-05-19T21:45:54.986Z,25.38
2023-05-19T21:48:23.465Z,18.30
2023-05-19T21:50:55.588Z,25.15
2023-05-19T21:53:25.783Z,23.13
2023-05-19T21:55:54.577Z,23.92
2023-05-19T21:58:26.224Z,29.00
2023-05-19T22:00:56.433Z,33.28
2023-05-19T22:03:25.334Z,38.40
2023-05-19T22:05:55.004Z,34.60
2023-05-19T22:08:23.794Z,31.27
2023-05-19T22:10:53.728Z,33.13
2023-05-19T22:13:22.342Z,32.65
2023-05-19T22:15:53.771Z,29.20
2023-05-19T22:18:22.388Z,30.38
2023-05-19T22:20:50.785Z,26.58
2023-05-19T22:23:19.288Z,34.42
2023-05-19T22:25:48.049Z,24.95
2023-05-19T22:28:16.736Z,26.92
2023-05-19T22:30:45.718Z,27.25
2023-05-19T22:33:15.827Z,29.52
2023-05-19T22:35:44.530Z,28.65
2023-05-19T22:38:18.872Z,24.85
2023-05-19T22:40:48.139Z,29.17
2023-05-19T22:43:16.760Z,32.25
2023-05-19T22:45:45.243Z,32.38
2023-05-19T22:48:15.202Z,30.17
2023-05-19T22:50:46.629Z,27.58
2023-05-19T22:53:20.274Z,29.90
2023-05-19T22:55:48.993Z,32.28
2023-05-19T22:58:17.550Z,32.22
2023-05-19T23:00:46.086Z,36.22
2023-05-19T23:03:16.236Z,27.75
2023-05-19T23:05:44.980Z,29.00
2023-05-19T23:08:13.448Z,25.45
2023-05-19T23:10:42.013Z,23.95
2023-05-19T23:13:12.232Z,31.92
2023-05-19T23:15:40.699Z,27.92
2023-05-19T23:18:09.110Z,31.55
2023-05-19T23:20:39.094Z,25.38
2023-05-19T23:23:07.668Z,26.30
2023-05-19T23:25:36.448Z,26.70
2023-05-19T23:28:05.096Z,27.95
2023-05-19T23:30:33.645Z,29.73
2023-05-19T23:33:02.125Z,30.95
2023-05-19T23:35:30.739Z,28.38
2023-05-19T23:38:01.181Z,28.55
2023-05-19T23:40:30.554Z,30.70
2023-05-19T23:42:59.454Z,27.20
2023-05-19T23:45:27.840Z,29.52
2023-05-19T23:47:56.509Z,29.00
2023-05-19T23:50:24.988Z,33.75
2023-05-19T23:52:53.552Z,24.50
2023-05-19T23:55:25.004Z,31.75
2023-05-19T23:57:53.601Z,26.58
